createdAt,value
2018-09-03T00:00:36.349Z,17.40
2018-09-03T00:03:11.373Z,17.50
2018-09-03T00:05:46.396Z,17.50
2018-09-03T00:08:21.313Z,17.50
2018-09-03T00:10:56.645Z,17.50
2018-09-03T00:13:31.635Z,17.50
2018-09-03T00:16:06.650Z,17.60
2018-09-03T00:18:41.681Z,17.50
2018-09-03T00:21:16.868Z,17.60
2018-09-03T00:23:52.009Z,17.60
2018-09-03T00:26:27.133Z,17.60
2018-09-03T00:29:01.956Z,17.60
2018-09-03T00:31:41.765Z,17.50
2018-09-03T00:34:21.924Z,17.50
2018-09-03T00:37:02.021Z,17.50
2018-09-03T00:39:41.992Z,17.50
2018-09-03T00:42:22.111Z,17.50
2018-09-03T00:45:02.272Z,17.40
2018-09-03T00:47:37.162Z,17.50
2018-09-03T00:50:12.229Z,17.50
2018-09-03T00:52:48.252Z,17.50
2018-09-03T00:55:23.393Z,17.50
2018-09-03T00:57:58.281Z,17.60
2018-09-03T01:00:33.310Z,17.60
2018-09-03T01:03:07.994Z,17.60
2018-09-03T01:05:43.065Z,17.70
2018-09-03T01:08:17.944Z,17.70
2018-09-03T01:10:52.809Z,17.60
2018-09-03T01:13:27.985Z,17.60
2018-09-03T01:16:02.800Z,17.70
2018-09-03T01:18:41.001Z,17.70
2018-09-03T01:21:15.833Z,17.70
2018-09-03T01:23:51.024Z,17.80
2018-09-03T01:26:26.172Z,17.80
2018-09-03T01:29:01.273Z,17.80
2018-09-03T01:31:36.444Z,17.80
2018-09-03T01:34:11.199Z,17.70
2018-09-03T01:36:45.928Z,17.80
2018-09-03T01:39:20.775Z,17.80
2018-09-03T01:41:55.584Z,17.80
2018-09-03T01:44:30.761Z,17.80
2018-09-03T01:47:05.603Z,17.80
2018-09-03T01:49:40.349Z,17.80
2018-09-03T01:52:15.380Z,17.80
2018-09-03T01:54:50.184Z,17.80
2018-09-03T01:57:25.165Z,17.70
2018-09-03T01:59:59.789Z,17.80
2018-09-03T02:02:34.713Z,17.80
2018-09-03T02:05:10.069Z,17.80
2018-09-03T02:07:44.907Z,17.90
2018-09-03T02:10:19.669Z,17.80
2018-09-03T02:12:54.736Z,17.80
2018-09-03T02:15:29.864Z,17.90
2018-09-03T02:18:04.770Z,17.90
2018-09-03T02:20:39.501Z,17.90
2018-09-03T02:23:14.425Z,17.80
2018-09-03T02:25:49.308Z,17.90
2018-09-03T02:28:24.378Z,17.80
2018-09-03T02:30:59.089Z,17.80
2018-09-03T02:33:33.977Z,17.90
2018-09-03T02:36:08.647Z,17.90
2018-09-03T02:38:43.706Z,17.90
2018-09-03T02:41:18.724Z,18.00
2018-09-03T02:43:53.635Z,18.00
2018-09-03T02:46:28.345Z,18.00
2018-09-03T02:49:03.271Z,18.00
2018-09-03T02:51:38.195Z,18.10
2018-09-03T02:54:13.130Z,18.10
2018-09-03T02:56:47.812Z,18.10
2018-09-03T02:59:22.509Z,18.10
2018-09-03T03:01:57.168Z,18.10
2018-09-03T03:04:31.956Z,18.10
2018-09-03T03:07:06.769Z,18.10
2018-09-03T03:09:41.718Z,18.10
2018-09-03T03:12:22.532Z,18.10
2018-09-03T03:14:58.398Z,18.10
2018-09-03T03:17:33.446Z,18.00
2018-09-03T03:20:08.263Z,18.20
2018-09-03T03:22:43.292Z,18.20
2018-09-03T03:25:18.265Z,18.20
2018-09-03T03:27:53.073Z,18.20
2018-09-03T03:30:27.860Z,18.20
2018-09-03T03:33:02.552Z,18.10
2018-09-03T03:35:37.419Z,18.10
2018-09-03T03:38:12.541Z,18.10
2018-09-03T03:40:47.359Z,18.10
2018-09-03T03:43:22.235Z,18.10
2018-09-03T03:45:56.919Z,18.10
2018-09-03T03:48:31.754Z,18.10
2018-09-03T03:51:06.481Z,18.10
2018-09-03T03:53:41.152Z,18.10
2018-09-03T03:56:16.153Z,18.10
2018-09-03T03:58:51.196Z,18.10
2018-09-03T04:01:26.013Z,18.10
2018-09-03T04:04:00.743Z,18.10
2018-09-03T04:06:35.501Z,18.10
2018-09-03T04:09:11.210Z,18.00
2018-09-03T04:11:45.965Z,18.10
2018-09-03T04:14:20.654Z,18.20
2018-09-03T04:16:55.644Z,18.10
2018-09-03T04:19:30.521Z,18.20
2018-09-03T04:22:05.496Z,18.20
2018-09-03T04:24:40.381Z,18.10
2018-09-03T04:27:15.333Z,18.20
2018-09-03T04:29:50.421Z,18.10
2018-09-03T04:32:25.245Z,18.20
2018-09-03T04:35:00.085Z,18.20
2018-09-03T04:37:34.927Z,18.20
2018-09-03T04:40:09.805Z,18.20
2018-09-03T04:42:44.772Z,18.20
2018-09-03T04:45:19.497Z,18.30
2018-09-03T04:47:54.360Z,18.30
2018-09-03T04:50:29.363Z,18.30
2018-09-03T04:53:04.244Z,18.30
2018-09-03T04:55:39.204Z,18.30
2018-09-03T04:58:14.318Z,18.30
2018-09-03T05:00:48.941Z,18.30
2018-09-03T05:03:23.685Z,18.30
2018-09-03T05:05:58.428Z,18.30
2018-09-03T05:08:33.164Z,18.30
2018-09-03T05:11:07.972Z,18.30
2018-09-03T05:13:43.066Z,18.30
2018-09-03T05:16:18.161Z,18.40
2018-09-03T05:18:53.098Z,18.40
2018-09-03T05:21:28.352Z,18.40
2018-09-03T05:24:03.684Z,18.50
2018-09-03T05:26:38.585Z,18.60
2018-09-03T05:29:13.858Z,18.50
2018-09-03T05:31:48.927Z,18.60
2018-09-03T05:34:23.753Z,18.60
2018-09-03T05:36:58.752Z,18.70
2018-09-03T05:39:33.662Z,18.70
2018-09-03T05:42:08.891Z,18.70
2018-09-03T05:44:44.014Z,18.70
2018-09-03T05:47:18.891Z,18.70
2018-09-03T05:49:53.696Z,18.70
2018-09-03T05:52:28.689Z,18.70
2018-09-03T05:55:03.810Z,18.80
2018-09-03T05:57:38.566Z,18.80
2018-09-03T06:00:13.532Z,18.80
2018-09-03T06:02:48.441Z,18.80
2018-09-03T06:05:23.477Z,18.90
2018-09-03T06:07:58.589Z,18.90
2018-09-03T06:10:33.448Z,19.00
2018-09-03T06:13:08.396Z,19.00
2018-09-03T06:15:43.176Z,19.00
2018-09-03T06:18:18.574Z,19.10
2018-09-03T06:20:53.424Z,19.20
2018-09-03T06:23:28.373Z,19.20
2018-09-03T06:26:03.536Z,19.20
2018-09-03T06:28:39.320Z,19.20
2018-09-03T06:31:14.174Z,19.20
2018-09-03T06:33:49.187Z,19.30
2018-09-03T06:36:38.879Z,19.30
2018-09-03T06:39:14.417Z,19.30
2018-09-03T06:41:49.235Z,19.40
2018-09-03T06:44:24.346Z,19.50
2018-09-03T06:46:59.231Z,19.50
2018-09-03T06:49:34.081Z,19.50
2018-09-03T06:52:08.824Z,19.60
2018-09-03T06:54:43.641Z,19.60
2018-09-03T06:57:18.460Z,19.60
2018-09-03T06:59:53.361Z,19.60
2018-09-03T07:02:28.371Z,19.70
2018-09-03T07:05:03.264Z,19.70
2018-09-03T07:07:38.317Z,19.70
2018-09-03T07:10:13.421Z,19.70
2018-09-03T07:12:48.209Z,19.70
2018-09-03T07:15:23.346Z,19.70
2018-09-03T07:17:58.113Z,19.80
2018-09-03T07:20:32.761Z,19.80
2018-09-03T07:23:07.601Z,19.90
2018-09-03T07:25:42.585Z,19.90
2018-09-03T07:28:17.361Z,20.00
2018-09-03T07:30:52.203Z,20.10
2018-09-03T07:33:26.927Z,20.10
2018-09-03T07:36:01.941Z,20.10
2018-09-03T07:38:37.105Z,20.00
2018-09-03T07:41:12.146Z,20.00
2018-09-03T07:43:46.920Z,20.00
2018-09-03T07:46:21.962Z,20.00
2018-09-03T07:48:56.861Z,20.00
2018-09-03T07:51:32.279Z,19.90
2018-09-03T07:54:07.159Z,20.00
2018-09-03T07:56:41.916Z,20.00
2018-09-03T07:59:16.871Z,20.10
2018-09-03T08:01:51.732Z,20.20
2018-09-03T08:04:26.659Z,20.20
2018-09-03T08:07:01.377Z,20.20
2018-09-03T08:09:36.417Z,20.20
2018-09-03T08:12:11.405Z,20.20
2018-09-03T08:14:46.120Z,20.20
2018-09-03T08:17:21.226Z,20.20
2018-09-03T08:19:56.040Z,20.00
2018-09-03T08:22:30.869Z,20.00
2018-09-03T08:25:05.864Z,20.00
2018-09-03T08:27:41.116Z,19.90
2018-09-03T08:30:16.012Z,19.80
2018-09-03T08:32:50.921Z,19.80
2018-09-03T08:35:25.929Z,19.70
2018-09-03T08:38:00.987Z,19.70
2018-09-03T08:40:36.233Z,19.70
2018-09-03T08:43:11.103Z,19.60
2018-09-03T08:45:46.126Z,19.80
2018-09-03T08:48:21.063Z,19.70
2018-09-03T08:50:56.024Z,19.80
2018-09-03T08:53:30.805Z,19.90
2018-09-03T08:56:05.741Z,19.90
2018-09-03T08:58:40.652Z,19.90
2018-09-03T09:01:15.536Z,20.00
2018-09-03T09:03:50.684Z,20.10
2018-09-03T09:06:25.696Z,20.00
2018-09-03T09:09:00.915Z,20.10
2018-09-03T09:11:35.682Z,20.20
2018-09-03T09:14:10.515Z,20.40
2018-09-03T09:16:45.361Z,20.50
2018-09-03T09:19:20.488Z,20.60
2018-09-03T09:21:55.271Z,20.80
2018-09-03T09:24:30.046Z,20.90
2018-09-03T09:27:04.864Z,21.10
2018-09-03T09:29:39.727Z,21.40
2018-09-03T09:32:14.609Z,21.40
2018-09-03T09:34:49.469Z,21.50
2018-09-03T09:37:24.458Z,21.50
2018-09-03T09:39:59.388Z,21.70
2018-09-03T09:42:34.217Z,22.10
2018-09-03T09:45:09.514Z,22.40
2018-09-03T09:47:44.169Z,22.30
2018-09-03T09:50:18.876Z,22.30
2018-09-03T09:52:53.819Z,22.30
2018-09-03T09:55:28.637Z,22.20
2018-09-03T09:58:03.642Z,22.20
2018-09-03T10:00:43.896Z,22.10
2018-09-03T10:03:18.605Z,22.20
2018-09-03T10:05:53.341Z,22.20
2018-09-03T10:08:28.315Z,22.30
2018-09-03T10:11:03.312Z,22.40
2018-09-03T10:13:37.971Z,22.70
2018-09-03T10:16:13.155Z,22.70
2018-09-03T10:18:48.080Z,22.80
2018-09-03T10:21:23.234Z,22.70
2018-09-03T10:23:58.361Z,22.70
2018-09-03T10:26:33.361Z,22.70
2018-09-03T10:29:08.293Z,22.80
2018-09-03T10:31:43.331Z,23.00
2018-09-03T10:34:18.210Z,23.10
2018-09-03T10:36:52.946Z,23.20
2018-09-03T10:39:27.900Z,23.20
2018-09-03T10:42:03.302Z,23.10
2018-09-03T10:44:37.975Z,23.20
2018-09-03T10:47:12.834Z,23.30
2018-09-03T10:49:47.899Z,23.50
2018-09-03T10:52:22.964Z,23.60
2018-09-03T10:54:57.904Z,23.70
2018-09-03T10:57:32.828Z,23.60
2018-09-03T11:00:07.963Z,23.50
2018-09-03T11:02:42.661Z,23.50
2018-09-03T11:05:17.678Z,23.40
2018-09-03T11:07:52.949Z,23.30
2018-09-03T11:10:28.178Z,23.20
2018-09-03T11:13:03.097Z,23.20
2018-09-03T11:15:37.937Z,23.20
2018-09-03T11:18:13.181Z,23.30
2018-09-03T11:20:48.040Z,23.40
2018-09-03T11:23:23.089Z,23.40
2018-09-03T11:25:57.967Z,23.50
2018-09-03T11:28:33.014Z,23.70
2018-09-03T11:31:07.763Z,23.80
2018-09-03T11:33:43.095Z,23.90
2018-09-03T11:36:18.059Z,24.00
2018-09-03T11:38:53.033Z,24.00
2018-09-03T11:41:28.602Z,24.00
2018-09-03T11:44:04.022Z,23.90
2018-09-03T11:46:38.722Z,23.90
2018-09-03T11:49:13.572Z,23.90
2018-09-03T11:51:48.641Z,23.90
2018-09-03T11:54:23.882Z,24.10
2018-09-03T11:56:58.951Z,24.20
2018-09-03T11:59:33.980Z,24.10
2018-09-03T12:02:09.801Z,24.10
2018-09-03T12:04:45.909Z,24.10
2018-09-03T12:07:21.068Z,24.10
2018-09-03T12:09:56.165Z,24.20
2018-09-03T12:12:32.568Z,24.10
2018-09-03T12:15:15.449Z,24.20
2018-09-03T12:17:50.247Z,24.30
2018-09-03T12:20:25.428Z,24.20
2018-09-03T12:23:00.371Z,24.20
2018-09-03T12:25:36.330Z,24.30
2018-09-03T12:28:11.313Z,24.20
2018-09-03T12:30:46.357Z,24.20
2018-09-03T12:33:21.220Z,24.30
2018-09-03T12:35:56.072Z,24.30
2018-09-03T12:38:31.140Z,24.30
2018-09-03T12:41:06.944Z,24.40
2018-09-03T12:43:42.432Z,24.30
2018-09-03T12:46:17.534Z,24.40
2018-09-03T12:48:52.539Z,24.40
2018-09-03T12:51:27.292Z,24.40
2018-09-03T12:54:02.119Z,24.40
2018-09-03T12:56:37.161Z,24.50
2018-09-03T12:59:11.809Z,24.80
2018-09-03T13:01:46.791Z,24.70
2018-09-03T13:04:21.927Z,25.00
2018-09-03T13:06:57.045Z,25.10
2018-09-03T13:09:31.997Z,25.50
2018-09-03T13:12:06.787Z,25.90
2018-09-03T13:14:41.945Z,26.60
2018-09-03T13:17:17.132Z,27.00
2018-09-03T13:19:52.163Z,27.20
2018-09-03T13:22:27.358Z,27.40
2018-09-03T13:25:02.355Z,27.50
2018-09-03T13:27:37.526Z,27.60
2018-09-03T13:30:12.793Z,27.70
2018-09-03T13:32:47.759Z,27.20
2018-09-03T13:35:22.728Z,26.80
2018-09-03T13:37:58.046Z,26.60
2018-09-03T13:40:32.973Z,26.30
2018-09-03T13:43:08.063Z,25.90
2018-09-03T13:45:42.849Z,25.70
2018-09-03T13:48:18.045Z,25.60
2018-09-03T13:50:52.812Z,25.30
2018-09-03T13:53:27.481Z,25.10
2018-09-03T13:56:02.751Z,25.00
2018-09-03T13:58:37.639Z,24.70
2018-09-03T14:01:12.742Z,24.80
2018-09-03T14:03:47.877Z,24.70
2018-09-03T14:06:23.008Z,24.50
2018-09-03T14:08:58.121Z,24.50
2018-09-03T14:11:33.221Z,24.30
2018-09-03T14:14:08.365Z,24.20
2018-09-03T14:16:43.332Z,24.20
2018-09-03T14:19:18.174Z,24.20
2018-09-03T14:21:52.977Z,24.20
2018-09-03T14:24:28.185Z,24.10
2018-09-03T14:27:03.309Z,24.00
2018-09-03T14:29:38.224Z,23.90
2018-09-03T14:32:13.025Z,23.90
2018-09-03T14:34:48.334Z,23.80
2018-09-03T14:37:23.389Z,23.80
2018-09-03T14:39:58.208Z,23.70
2018-09-03T14:42:33.503Z,23.60
2018-09-03T14:45:08.487Z,23.50
2018-09-03T14:47:43.679Z,23.50
2018-09-03T14:50:18.886Z,23.50
2018-09-03T14:52:53.976Z,23.50
2018-09-03T14:55:29.352Z,23.40
2018-09-03T14:58:04.297Z,23.30
2018-09-03T15:00:39.360Z,23.20
2018-09-03T15:03:14.361Z,23.20
2018-09-03T15:05:49.489Z,23.20
2018-09-03T15:08:24.336Z,23.10
2018-09-03T15:10:59.211Z,23.20
2018-09-03T15:13:33.984Z,23.20
2018-09-03T15:16:08.992Z,23.10
2018-09-03T15:18:44.088Z,23.10
2018-09-03T15:21:18.934Z,23.10
2018-09-03T15:23:53.907Z,23.10
2018-09-03T15:26:29.422Z,23.10
2018-09-03T15:29:04.564Z,23.00
2018-09-03T15:31:39.375Z,23.00
2018-09-03T15:34:14.323Z,23.00
2018-09-03T15:36:49.444Z,22.90
2018-09-03T15:39:24.390Z,22.90
2018-09-03T15:41:59.319Z,22.80
2018-09-03T15:44:34.159Z,22.90
2018-09-03T15:47:09.220Z,22.80
2018-09-03T15:49:44.343Z,22.80
2018-09-03T15:52:19.117Z,22.80
2018-09-03T15:54:54.296Z,22.70
2018-09-03T15:57:29.304Z,22.60
2018-09-03T16:00:05.006Z,22.40
2018-09-03T16:02:40.105Z,22.30
2018-09-03T16:05:15.036Z,22.20
2018-09-03T16:07:50.126Z,22.20
2018-09-03T16:10:25.238Z,22.20
2018-09-03T16:13:00.487Z,22.10
2018-09-03T16:15:35.116Z,22.00
2018-09-03T16:18:10.249Z,22.00
2018-09-03T16:20:45.240Z,21.90
2018-09-03T16:23:20.132Z,21.90
2018-09-03T16:25:55.124Z,21.80
2018-09-03T16:28:30.156Z,21.70
2018-09-03T16:31:05.054Z,21.80
2018-09-03T16:33:40.186Z,21.70
2018-09-03T16:36:15.290Z,21.70
2018-09-03T16:38:50.113Z,21.70
2018-09-03T16:41:25.108Z,21.50
2018-09-03T16:44:00.048Z,21.50
2018-09-03T16:46:34.726Z,21.40
2018-09-03T16:49:09.906Z,21.30
2018-09-03T16:51:44.809Z,21.30
2018-09-03T16:54:19.623Z,21.20
2018-09-03T16:56:54.505Z,21.20
2018-09-03T16:59:29.691Z,21.10
2018-09-03T17:02:04.617Z,21.10
2018-09-03T17:04:39.776Z,21.00
2018-09-03T17:07:14.988Z,20.90
2018-09-03T17:09:50.124Z,20.80
2018-09-03T17:12:24.725Z,20.70
2018-09-03T17:14:59.941Z,20.60
2018-09-03T17:17:35.116Z,20.60
2018-09-03T17:20:10.232Z,20.50
2018-09-03T17:22:45.017Z,20.50
2018-09-03T17:25:20.093Z,20.40
2018-09-03T17:27:55.384Z,20.40
2018-09-03T17:30:30.504Z,20.30
2018-09-03T17:33:05.437Z,20.20
2018-09-03T17:35:40.571Z,20.10
2018-09-03T17:38:15.584Z,20.10
2018-09-03T17:40:50.615Z,20.00
2018-09-03T17:43:25.664Z,19.90
2018-09-03T17:46:00.876Z,19.80
2018-09-03T17:48:35.851Z,19.80
2018-09-03T17:51:10.940Z,19.70
2018-09-03T17:53:46.194Z,19.70
2018-09-03T17:56:21.029Z,19.60
2018-09-03T17:58:56.079Z,19.50
2018-09-03T18:01:31.232Z,19.50
2018-09-03T18:04:06.400Z,19.50
2018-09-03T18:06:41.484Z,19.40
2018-09-03T18:09:16.641Z,19.30
2018-09-03T18:11:51.561Z,19.20
2018-09-03T18:14:26.243Z,19.10
2018-09-03T18:17:01.314Z,19.10
2018-09-03T18:19:36.129Z,19.10
2018-09-03T18:22:11.136Z,19.10
2018-09-03T18:24:46.141Z,19.00
2018-09-03T18:27:21.405Z,19.00
2018-09-03T18:29:56.189Z,19.00
2018-09-03T18:32:31.151Z,18.90
2018-09-03T18:35:06.100Z,18.80
2018-09-03T18:37:41.116Z,18.80
2018-09-03T18:40:16.271Z,18.80
2018-09-03T18:42:51.204Z,18.70
2018-09-03T18:45:25.975Z,18.80
2018-09-03T18:48:01.059Z,18.80
2018-09-03T18:50:36.148Z,18.70
2018-09-03T18:53:10.976Z,18.70
2018-09-03T18:55:46.093Z,18.70
2018-09-03T18:58:20.869Z,18.60
2018-09-03T19:00:55.680Z,18.60
2018-09-03T19:03:30.439Z,18.50
2018-09-03T19:06:05.793Z,18.40
2018-09-03T19:08:40.733Z,18.40
2018-09-03T19:11:15.671Z,18.40
2018-09-03T19:13:50.601Z,18.40
2018-09-03T19:16:25.315Z,18.40
2018-09-03T19:19:00.475Z,18.40
2018-09-03T19:21:35.117Z,18.30
2018-09-03T19:24:10.340Z,18.30
2018-09-03T19:26:45.233Z,18.20
2018-09-03T19:29:20.073Z,18.20
2018-09-03T19:31:54.776Z,18.10
2018-09-03T19:34:29.580Z,18.10
2018-09-03T19:37:04.612Z,18.10
2018-09-03T19:39:39.580Z,18.10
2018-09-03T19:42:14.291Z,18.10
2018-09-03T19:44:49.171Z,18.00
2018-09-03T19:47:24.044Z,18.00
2018-09-03T19:49:59.039Z,18.00
2018-09-03T19:52:34.214Z,18.00
2018-09-03T19:55:09.372Z,18.00
2018-09-03T19:57:44.323Z,17.90
2018-09-03T20:00:19.411Z,17.80
2018-09-03T20:02:54.265Z,17.80
2018-09-03T20:05:29.408Z,17.80
2018-09-03T20:08:04.153Z,17.90
2018-09-03T20:10:39.360Z,17.80
2018-09-03T20:13:14.508Z,17.80
2018-09-03T20:15:50.136Z,17.70
2018-09-03T20:18:25.037Z,17.60
2018-09-03T20:20:59.863Z,17.60
2018-09-03T20:23:34.655Z,17.60
2018-09-03T20:26:09.445Z,17.70
2018-09-03T20:28:44.355Z,17.60
2018-09-03T20:31:19.343Z,17.50
2018-09-03T20:33:54.127Z,17.50
2018-09-03T20:36:29.070Z,17.50
2018-09-03T20:39:05.206Z,17.50
2018-09-03T20:41:40.068Z,17.50
2018-09-03T20:44:14.956Z,17.50
2018-09-03T20:46:49.975Z,17.50
2018-09-03T20:49:24.585Z,17.40
2018-09-03T20:51:59.437Z,17.40
2018-09-03T20:54:34.368Z,17.50
2018-09-03T20:57:09.060Z,17.50
2018-09-03T20:59:44.064Z,17.60
2018-09-03T21:02:19.182Z,17.60
2018-09-03T21:04:54.151Z,17.50
2018-09-03T21:07:28.878Z,17.60
2018-09-03T21:10:03.972Z,17.50
2018-09-03T21:12:38.901Z,17.40
2018-09-03T21:15:13.991Z,17.40
2018-09-03T21:17:48.932Z,17.40
2018-09-03T21:20:23.688Z,17.30
2018-09-03T21:22:58.721Z,17.30
2018-09-03T21:25:33.605Z,17.40
2018-09-03T21:28:08.504Z,17.50
2018-09-03T21:30:43.421Z,17.40
2018-09-03T21:33:18.301Z,17.50
2018-09-03T21:35:53.281Z,17.60
2018-09-03T21:38:28.717Z,17.50
2018-09-03T21:41:04.050Z,17.50
2018-09-03T21:43:39.044Z,17.50
2018-09-03T21:46:13.745Z,17.50
2018-09-03T21:48:48.747Z,17.60
2018-09-03T21:51:23.517Z,17.70
2018-09-03T21:53:58.425Z,17.60
2018-09-03T21:56:33.620Z,17.70
2018-09-03T21:59:08.413Z,17.70
2018-09-03T22:01:43.726Z,17.60
2018-09-03T22:04:18.427Z,17.50
2018-09-03T22:06:53.428Z,17.50
2018-09-03T22:09:28.464Z,17.50
2018-09-03T22:12:03.409Z,17.40
2018-09-03T22:14:38.296Z,17.40
2018-09-03T22:17:13.274Z,17.40
2018-09-03T22:19:48.266Z,17.40
2018-09-03T22:22:23.268Z,17.30
2018-09-03T22:24:58.179Z,17.30
2018-09-03T22:27:33.013Z,17.30
2018-09-03T22:30:08.087Z,17.30
2018-09-03T22:32:43.206Z,17.20
2018-09-03T22:35:18.439Z,17.20
2018-09-03T22:37:53.089Z,17.30
2018-09-03T22:40:27.917Z,17.30
2018-09-03T22:43:02.619Z,17.20
2018-09-03T22:45:37.519Z,17.10
2018-09-03T22:48:12.304Z,17.00
2018-09-03T22:50:47.239Z,16.90
2018-09-03T22:53:22.021Z,16.90
2018-09-03T22:55:57.141Z,17.00
2018-09-03T22:58:31.872Z,17.00
2018-09-03T23:01:06.881Z,16.90
2018-09-03T23:03:41.799Z,16.80
2018-09-03T23:06:16.672Z,16.70
2018-09-03T23:08:51.688Z,16.70
2018-09-03T23:11:27.057Z,16.60
2018-09-03T23:14:02.267Z,16.50
2018-09-03T23:16:37.335Z,16.70
2018-09-03T23:19:19.712Z,16.60
2018-09-03T23:21:55.856Z,16.60
2018-09-03T23:24:30.804Z,16.50
2018-09-03T23:27:05.927Z,16.40
2018-09-03T23:29:40.696Z,16.40
2018-09-03T23:32:15.482Z,16.40
2018-09-03T23:34:50.464Z,16.50
2018-09-03T23:37:25.344Z,16.60
2018-09-03T23:40:00.239Z,16.50
2018-09-03T23:42:34.973Z,16.50
2018-09-03T23:45:09.825Z,16.40
2018-09-03T23:47:44.651Z,16.40
2018-09-03T23:50:19.692Z,16.30
2018-09-03T23:52:54.503Z,16.20
2018-09-03T23:55:29.205Z,16.20
2018-09-03T23:58:04.096Z,16.10
